Extreme weather reports worldwide

High gusts

Station
 
Location
 
Name
 
Wind
Knots
Gust
Knots
Vis
SM
Temp/Dew
C
Baro
inHg
METAR
 
YYY CYYY Mont-Joli, CA Mont Joli Airport 28 41 16/11 29.61 CYYY 280641Z 16028G41KT 10SM -RA FEW035 OVC100 16/11 A2961 RMK SC2AC6 SLP030 DENSITY ALT 700FT
CWRU 32 39 8/8 CWRU 280600Z AUTO 11032G39KT 09/08 RMK AO1 6PAST HR 6010 PK WND 11040/0535 SLP157 P0002 T00870082 50028
SHM RJBD Shirahama, JP Nanki Shirahama Airport 28 38 2.49 23/23 29.35 RJBD 280600Z 15028G38KT 4000 -SHRA BR FEW002 SCT005 BKN006 FEW020CB 23/23 Q0994
RJOE JP Akeno Airport 24 36 0.93 23/21 29.38 RJOE 280612Z 18024G36KT 1500 +SHRA BR FEW008 SCT015 BKN025 23/21 Q0995 RMK 1ST008 3CU015 5CU025 A2940
KMKS Moncks Corner, US Berkeley County Airport 7 36 2.5 24/20 29.87 KMKS 280635Z AUTO 20007G36KT 160V220 2 1/2SM +VCTSRA SCT007 SCT012 BKN035 24/20 A2987 RMK AO2 VIS 1V5 LTG DSNT ALQDS P0017

Station
 
Location
 
Name
 
Wind
Knots
Gust
Knots
Vis
SM
Temp/Dew
C
Baro
inHg
METAR
 
CWEU 28 34 15 -5/-9 29.93 CWEU 280600Z 36028G34KT 15SM FEW017 FEW031 BKN071 M05/M09 A2993 RMK SC1SC2AC5 SC TR PRESRR SLP148
CWVH 11 34 / CWVH 280632Z AUTO 08011G34KT 020V140 ////SM ////// ///// A////
XJD OTBH Ar Rayyan, QA Al Udeid Air Base 29 33 37/11 29.65 OTBH 280555Z 33029G33KT 9999 CLR 38/12 A2967 Q1004 RMK AO2A PK WND 34035/37 SLP048 T03760115 10376 20281 52009 FZRANO $
CEK USCC Chelyabinsk, RU Chelyabinsk Balandino Airport 23 33 18/1 29.97 USCC 280630Z 27012G17MPS CAVOK 18/01 Q1015 R27/000060 NOSIG RMK QFE741
KC83 25 33 16/9 29.95 KC83 280635Z AUTO 23025G33KT 10SM CLR 16/09 A2995 RMK AO2
PPK UACP Petropavlosk, KZ Petropavlosk South Airport 23 33 11/5 29.79 UACP 280644Z 25012G17MPS 9999 BKN040CB 11/05 Q1009 NOSIG RMK QFE745/0993
RJTK Kisarazu, JP JGSDF Kisarazu Airfield 20 32 25/23 29.56 RJTK 280603Z 20020G32KT 9999 -SHRA FEW006 BKN012 BKN020 25/23 Q1001 RMK 1ST006 5CU012 6CU020 A2956
KT69 20 32 9 30/20 29.88 KT69 280635Z AUTO 23020G32KT 9SM CLR 30/20 A2988 RMK A01
BHB KBHB Bar Harbor, US Hancock County-Bar Harbor Airport 19 31 15/13 29.82 KBHB 280556Z AUTO 17019G31KT 10SM OVC008 15/13 A2982 RMK AO2 PK WND 17032/0509 SLP099 60004 T01500133 10161 20111 56037
CAT LPCS Cascais, PT Cascais Airport 21 31 15/12 30.06 LPCS 280630Z 01021G31KT 9999 FEW014 15/12 Q1018
ZCL MMZC Zacatecas, MX General Leobardo C. Ruiz International Airport 20 30 4 21/8 30.32 MMZC 280540Z E07020G30KT 4SM SCT040 SCT100 BKN200 21/08 A3032 RMK 8/224 HZY
KMWN 22 30 0 10/10 KMWN 280547Z 21022G30KT 0SM -RA FG VV000 10/10 RMK 60095 10096 20083
POM AYPY Port Moresby, PG Port Moresby Jacksons International Airport 20 30 31/24 29.73 AYPY 280600Z 15020G30KT 9999 FUHZ SCT040 31/24 Q1007
CWZQ 23 30 10/4 CWZQ 280600Z AUTO 13023G30KT 10/05 RMK AO1 PK WND 12034/0549 SLP205 T01020049 58030
RJNS 18 30 4.35 23/23 29.56 RJNS 280600Z 18018G30KT 7000 SHRA FEW000 SCT002 BKN003 23/23 Q1001
KHBV Hebbronville, US Jim Hogg County Airport 20 30 28/17 29.85 KHBV 280630Z AUTO 14020G30KT 10SM -DZ SCT080 SCT100 28/17 A2985 RMK AO2 T02810172
VGA VOBZ Gannavaram, IN Vijayawada Airport 15 30 3.73 36/24 29.50 VOBZ 280630Z 26015G30KT 6000 SCT020 SCT100 36/24 Q0999 NOSIG
FUJ RJFE Goto, JP Fukue Airport 19 29 21/15 29.59 RJFE 280600Z 36019G29KT 9999 FEW020 BKN025 21/15 Q1002
ROC KROC Rochester, US Greater Rochester International Airport 16 28 17/12 29.65 KROC 280554Z 26016G28KT 10SM BKN026 OVC032 18/13 A2965 RMK AO2 PK WND 26028/0547 SLP041 T01780128 10211 20178 51003
HID YHID Horn Island, AU Horn Island Airport 18 28 28/24 29.82 YHID 280636Z AUTO 12018G28KT 9999 // SCT019 28/24 Q1010 RF00.0/000.2
RJTL Matsudo, JP JMSDF Shimofusa Air Base 15 27 24/22 29.56 RJTL 280550Z 19015G27KT 9999 SCT006 BKN010 BKN050 24/22 Q1001 RMK 3ST006 5ST010 7SC050 A2956
YRF CYCA Cartwright, CA Cartwright Airport 16 27 9 10/5 29.96 CYCA 280600Z AUTO 21016G27KT 9SM CLR 10/05 A2996 RMK SLP148
OIT RJFO Oita, JP Oita Airport 15 27 20/16 29.47 RJFO 280600Z 29015G27KT 260V330 9999 FEW005 SCT030 BKN035 20/16 Q0998
RJOP Komatsushima, JP JMSDF Komatsushima Heliport 17 27 1.99 18/16 29.35 RJOP 280621Z 30017G27KT 3200 -SHRA BR SCT005 BKN012 OVC025 FEW025CB 18/16 Q0994 RMK 3ST005 5CU012 8CU025 2CB025 A2938 CB 10KM NE MOV NE
ITM RJOO Osaka, JP Osaka International Airport 17 27 1.24 15/14 29.35 RJOO 280629Z 34017G27KT 320V020 2000 R32L/1400VP2000U SHRA BR FEW002 SCT008 BKN015 15/14 Q0994 RMK 1ST002 4ST008 6CU015 A2938
DKK KDKK Dunkirk, US Chautauqua County-Dunkirk Airport 15 26 17/13 29.71 KDKK 280553Z AUTO 24015G26KT 10SM FEW016 SCT028 OVC048 17/13 A2971 RMK AO2 PK WND 24033/0501 SLP056 60001 T01720133 10183 20167 50003
CZF PACZ Cape Romanzof, US Cape Romanzof LRRS Airport 19 26 -2/-4 29.85 PACZ 280555Z AUTO 04019G26KT 10SM CLR M02/M04 A2985 RMK AO2 SLP115 T10221045 11017 21029 57010
YPH CYPH Inukjuak, CA Inukjuak Airport 19 26 9 -1/-3 29.89 CYPH 280610Z AUTO 01019G26KT 9SM SCT027 M01/M03 A2989 RMK SLP127
TRZ VOTR Tiruchirappally, IN Tiruchirapally Civil Airport Airport 16 26 3.73 36/24 29.65 VOTR 280630Z 27016G26KT 6000 FEW016 SCT100 36/24 Q1004 NOSIG
KNGP Corpus Christi, US Corpus Christi Naval Air Station/Truax Field 14 25 29/22 29.98 KNGP 280556Z AUTO 22014G25KT 10SM CLR 29/23 A2998 RMK AO2 PK WND 22033/0539 RAB07E16 PRESFR SLP153 P0000 60000 T02940228 10322 20294 50022 $
CWVU 20 25 13/9 CWVU 280600Z AUTO 11020G25KT 13/10 RMK AO1 PK WND 12029/0515 SLP132 T01310095 56028
SWA ZGOW Shantou, CN Jieyang Chaoshan International Airport 16 25 28/23 29.62 ZGOW 280600Z 11008G13MPS 9999 -SHRA BKN040 28/23 Q1003 NOSIG
RJAT Gotemba, JP JGSDF Camp Fuji Heliport / Fuji Army Heliport 14 25 0.19 21/20 29.62 RJAT 280607Z 18014G25KT 0300 SHRA FG VV003 21/20 Q1003 RMK A2962
YVO CYVO Val-d'Or, CA Val-d'Or Airport 17 25 6 13/13 29.29 CYVO 280629Z AUTO 33017G25KT 6SM RA BR BKN008 OVC011 13/13 A2929 RMK PCPN 2.0MM PAST HR SLP928 DENSITY ALT 1900FT
PYJ UERP Yakutia, RU Polyarny Airport 16 25 23/-3 29.65 UERP 280630Z 14008G13MPS CAVOK 23/M03 Q1004 R17/090060 NOSIG RMK QFE709
VOKU 14 25 3.73 33/22 29.65 VOKU 280630Z 26014G25KT 6000 FEW018 BKN080 33/22 Q1004 NOSIG
KCZ RJOK Nankoku, JP Kochi Ryoma Airport 15 25 23/18 29.32 RJOK 280634Z 35015G25KT 9999 VCSH FEW005 BKN050 23/18 Q0993 RMK 1ST005 7SC050 A2933
TLH KTLH Tallahassee, US Tallahassee Regional Airport 12 25 1.75 20/19 30.03 KTLH 280650Z AUTO 01012G25KT 1 3/4SM VCTS +RA BR FEW022 BKN030 OVC044 21/19 A3003 RMK AO2 PK WND 36032/0632 LTG DSNT W-NE RAB32 SLP169 P0014 T02060194
KGEZ Shelbyville, US Shelbyville Municipal Airport 10 24 18/12 29.89 KGEZ 280553Z AUTO 29010G24KT 10SM -RA FEW060 OVC085 19/13 A2989 RMK AO2 PK WND 28026/0529 RAB42 SLP118 P0000 60000 T01890128 10233 20178 53006
ART KART Watertown, US Watertown International Airport 14 24 17/13 29.60 KART 280556Z AUTO 22014G24KT 10SM OVC025 18/13 A2960 RMK AO2 SLP020 60000 T01780133 10206 20172 50005
KGVQ Batavia, US Genesee County Airport 14 24 16/13 29.65 KGVQ 280556Z AUTO 25014G24KT 10SM OVC018 16/13 A2965 RMK AO2 PK WND 24028/0533 SLP035 T01610133 10183 20161 53003
YUX CYUX Hall Beach, CA Hall Beach Airport 17 24 9 -2/-4 29.82 CYUX 280600Z AUTO 33017G24KT 9SM OVC014 M02/M04 A2982 RMK SLP100
KBEA Beeville, US Beeville Municipal Airport 16 24 28/21 29.86 KBEA 280635Z AUTO 16016G24KT 10SM CLR 29/22 A2986 RMK AO2 T02890218
CCR KCCR Concord, US Buchanan Field 15 23 12/8 30.02 KCCR 280553Z AUTO 19015G23KT 10SM CLR 13/09 A3002 RMK AO2 SLP150 T01280089 10261 20122 51011
WFK KFVE Frenchville, US Northern Aroostook Regional Airport 14 23 11/9 29.76 KFVE 280553Z AUTO 14014G23KT 10SM -RA OVC014 12/09 A2976 RMK AO2 PK WND 14032/0503 RAB05 SLP076 P0005 60005 T01170094 10139 20117 58035